Mid Fortune — ZGCG8 — position and weather

sailwx.info

Track history (hours):
 
Tides and Currents Weather Stations Pressure Air Temp Water Temp Dewpoint Dewpoint Depression Visibility Wind Speed Wind Dir Waves Ship Positions

Mid Fortune

Last reported at 2015-Jan-14 10:05 UTC. Time now 2015-Jan-30 09:31 UTC.
Position N 39°09' W 072°14'.
Warning: this ship's position is 15 days out of date.

Length 147 m; draft 6 m.

Type: Tanker. MMSI: 319182000.

Date/timePositionNaut miles runAvg speedWind from/ knotsBaromVisibWave heightAir tempDewpointWater temp
2015-Jan-14 10:05N 39°09' W 072°14'713.5
2015-Jan-14 09:33N 39°14' W 072°21'1313.3
2015-Jan-14 08:33N 39°24' W 072°33'1313.4
2015-Jan-14 07:33N 39°33' W 072°45'1413.8
2015-Jan-14 06:33N 39°42' W 072°58'1413.7
2015-Jan-14 05:33N 39°52' W 073°10'3611.7
2015-Jan-14 02:30N 40°19' W 073°41'8 8.9
2015-Jan-14 01:33N 40°26' W 073°48'9 9.5
2015-Jan-14 00:34N 40°31' W 073°59'8 8.0
2015-Jan-13 23:32N 40°38' W 074°03'0 0.0
2015-Jan-13 22:33N 40°38' W 074°03'0 0.0
2015-Jan-13 21:33N 40°38' W 074°03'0 0.0
2015-Jan-13 20:33N 40°38' W 074°03'0 0.0
2015-Jan-13 19:33N 40°38' W 074°03'0 0.0
2015-Jan-13 18:33N 40°38' W 074°03'0 0.0
2015-Jan-13 17:33N 40°38' W 074°03'0 0.0
2015-Jan-13 16:33N 40°38' W 074°03'0 0.0
2015-Jan-13 15:33N 40°38' W 074°03'0 0.0
2015-Jan-13 14:33N 40°38' W 074°03'0 0.5
2015-Jan-13 13:33N 40°38' W 074°04'3 2.7
2015-Jan-13 12:33N 40°39' W 074°07'0 0.0
2015-Jan-12 16:25N 40°39' W 074°07'3 3.7
2015-Jan-12 15:33N 40°39' W 074°11'7 0.9
2015-Jan-12 08:23N 40°33' W 074°15'0 0.0
2015-Jan-11 13:14N 40°33' W 074°15'0 0.0
2015-Jan-11 11:14N 40°33' W 074°15'0 0.0
2015-Jan-11 08:33N 40°33' W 074°15'3 2.8
2015-Jan-11 07:19N 40°31' W 074°12'9 9.6
2015-Jan-11 06:25N 40°29' W 074°00'7 8.6
2015-Jan-11 05:33N 40°26' W 073°51'4 3.8
2015-Jan-11 04:25N 40°27' W 073°46'5 5.0
2015-Jan-11 03:28N 40°27' W 073°40'7 7.9
2015-Jan-11 02:34N 40°28' W 073°30'9 9.1
2015-Jan-11 01:33N 40°29' W 073°18'1110.7
2015-Jan-11 00:31N 40°30' W 073°04'1212.5
2015-Jan-10 23:33N 40°30' W 072°48'1312.9
2015-Jan-10 22:33N 40°30' W 072°31'1312.9
2015-Jan-10 21:34N 40°31' W 072°14'1312.5
2015-Jan-10 20:34N 40°32' W 071°58'1212.4
2015-Jan-10 19:34N 40°32' W 071°41'1212.1
2015-Jan-10 18:34N 40°32' W 071°25'114 5.1
2015-Jan-09 20:19N 42°23' W 070°53'2 0.3
2015-Jan-09 14:04N 42°22' W 070°55'3 5.4
2015-Jan-09 13:26N 42°19' W 070°52'7 0.3
2015-Jan-08 15:23N 42°26' W 070°50'2 2.4
2015-Jan-08 14:33N 42°24' W 070°48'1 0.7
2015-Jan-08 12:33N 42°25' W 070°50'3 3.5
2015-Jan-08 11:33N 42°24' W 070°45'33 4.7
2015-Jan-08 04:33N 42°53' W 070°24'811.2
2015-Jan-08 03:49N 42°59' W 070°32'310.5
2015-Jan-08 03:33N 43°01' W 070°35'8 0.3
2015-Jan-07 00:34N 43°04' W 070°44'8 6.9
2015-Jan-06 23:22N 43°01' W 070°34'4 3.7
2015-Jan-06 22:13N 42°59' W 070°29'1 0.5
2015-Jan-06 19:18N 42°59' W 070°31'1 1.9
2015-Jan-06 18:32N 42°60' W 070°29'  
Track history (hours):
 
Tides and Currents Weather Stations Pressure Air Temp Water Temp Dewpoint Dewpoint Depression Visibility Wind Speed Wind Dir Waves Ship Positions

Mid Fortune

Last reported at 2015-Jan-14 10:05 UTC. Time now 2015-Jan-30 09:31 UTC.
Position N 39°09' W 072°14'.
Warning: this ship's position is 15 days out of date.

Length 147 m; draft 6 m.

Type: Tanker. MMSI: 319182000.

Date/timePositionNaut miles runAvg speedWind from/ knotsBaromVisibWave heightAir tempDewpointWater temp
2015-Jan-14 10:05N 39°09' W 072°14'713.5
2015-Jan-14 09:33N 39°14' W 072°21'1313.3
2015-Jan-14 08:33N 39°24' W 072°33'1313.4
2015-Jan-14 07:33N 39°33' W 072°45'1413.8
2015-Jan-14 06:33N 39°42' W 072°58'1413.7
2015-Jan-14 05:33N 39°52' W 073°10'3611.7
2015-Jan-14 02:30N 40°19' W 073°41'8 8.9
2015-Jan-14 01:33N 40°26' W 073°48'9 9.5
2015-Jan-14 00:34N 40°31' W 073°59'8 8.0
2015-Jan-13 23:32N 40°38' W 074°03'0 0.0
2015-Jan-13 22:33N 40°38' W 074°03'0 0.0
2015-Jan-13 21:33N 40°38' W 074°03'0 0.0
2015-Jan-13 20:33N 40°38' W 074°03'0 0.0
2015-Jan-13 19:33N 40°38' W 074°03'0 0.0
2015-Jan-13 18:33N 40°38' W 074°03'0 0.0
2015-Jan-13 17:33N 40°38' W 074°03'0 0.0
2015-Jan-13 16:33N 40°38' W 074°03'0 0.0
2015-Jan-13 15:33N 40°38' W 074°03'0 0.0
2015-Jan-13 14:33N 40°38' W 074°03'0 0.5
2015-Jan-13 13:33N 40°38' W 074°04'3 2.7
2015-Jan-13 12:33N 40°39' W 074°07'0 0.0
2015-Jan-12 16:25N 40°39' W 074°07'3 3.7
2015-Jan-12 15:33N 40°39' W 074°11'7 0.9
2015-Jan-12 08:23N 40°33' W 074°15'0 0.0
2015-Jan-11 13:14N 40°33' W 074°15'0 0.0
2015-Jan-11 11:14N 40°33' W 074°15'0 0.0
2015-Jan-11 08:33N 40°33' W 074°15'3 2.8
2015-Jan-11 07:19N 40°31' W 074°12'9 9.6
2015-Jan-11 06:25N 40°29' W 074°00'7 8.6
2015-Jan-11 05:33N 40°26' W 073°51'4 3.8
2015-Jan-11 04:25N 40°27' W 073°46'5 5.0
2015-Jan-11 03:28N 40°27' W 073°40'7 7.9
2015-Jan-11 02:34N 40°28' W 073°30'9 9.1
2015-Jan-11 01:33N 40°29' W 073°18'1110.7
2015-Jan-11 00:31N 40°30' W 073°04'1212.5
2015-Jan-10 23:33N 40°30' W 072°48'1312.9
2015-Jan-10 22:33N 40°30' W 072°31'1312.9
2015-Jan-10 21:34N 40°31' W 072°14'1312.5
2015-Jan-10 20:34N 40°32' W 071°58'1212.4
2015-Jan-10 19:34N 40°32' W 071°41'1212.1
2015-Jan-10 18:34N 40°32' W 071°25'114 5.1
2015-Jan-09 20:19N 42°23' W 070°53'2 0.3
2015-Jan-09 14:04N 42°22' W 070°55'3 5.4
2015-Jan-09 13:26N 42°19' W 070°52'7 0.3
2015-Jan-08 15:23N 42°26' W 070°50'2 2.4
2015-Jan-08 14:33N 42°24' W 070°48'1 0.7
2015-Jan-08 12:33N 42°25' W 070°50'3 3.5
2015-Jan-08 11:33N 42°24' W 070°45'33 4.7
2015-Jan-08 04:33N 42°53' W 070°24'811.2
2015-Jan-08 03:49N 42°59' W 070°32'310.5
2015-Jan-08 03:33N 43°01' W 070°35'8 0.3
2015-Jan-07 00:34N 43°04' W 070°44'8 6.9
2015-Jan-06 23:22N 43°01' W 070°34'4 3.7
2015-Jan-06 22:13N 42°59' W 070°29'1 0.5
2015-Jan-06 19:18N 42°59' W 070°31'1 1.9
2015-Jan-06 18:32N 42°60' W 070°29'  

Dump ship's entire track history